sensor_id;sensor_type;location;lat;lon;timestamp;pressure;altitude;pressure_sealevel;temperature;humidity
17311;BME280;8773;43.300;0.394;2023-06-22T00:00:08;99631.44;;;20.24;73.78
17311;BME280;8773;43.300;0.394;2023-06-22T00:02:36;99629.06;;;20.34;73.81
17311;BME280;8773;43.300;0.394;2023-06-22T00:05:04;99626.91;;;20.43;73.22
17311;BME280;8773;43.300;0.394;2023-06-22T00:07:32;99630.22;;;20.45;73.24
17311;BME280;8773;43.300;0.394;2023-06-22T00:09:59;99626.75;;;20.38;73.03
17311;BME280;8773;43.300;0.394;2023-06-22T00:12:26;99618.06;;;20.29;73.48
17311;BME280;8773;43.300;0.394;2023-06-22T00:14:55;99611.63;;;20.23;73.83
17311;BME280;8773;43.300;0.394;2023-06-22T00:17:23;99614.88;;;20.07;73.97
17311;BME280;8773;43.300;0.394;2023-06-22T00:20:09;99617.63;;;20.00;73.61
17311;BME280;8773;43.300;0.394;2023-06-22T00:22:36;99615.66;;;19.83;74.13
17311;BME280;8773;43.300;0.394;2023-06-22T00:25:05;99617.22;;;19.72;74.34
17311;BME280;8773;43.300;0.394;2023-06-22T00:27:33;99611.84;;;19.65;74.82
17311;BME280;8773;43.300;0.394;2023-06-22T00:30:03;99621.94;;;19.45;75.67
17311;BME280;8773;43.300;0.394;2023-06-22T00:32:31;99616.31;;;19.47;76.02
17311;BME280;8773;43.300;0.394;2023-06-22T00:34:58;99623.97;;;19.56;75.73
17311;BME280;8773;43.300;0.394;2023-06-22T00:37:26;99623.16;;;19.56;75.97
17311;BME280;8773;43.300;0.394;2023-06-22T00:39:53;99626.41;;;19.71;76.02
17311;BME280;8773;43.300;0.394;2023-06-22T00:42:21;99615.97;;;19.75;75.53
17311;BME280;8773;43.300;0.394;2023-06-22T00:44:48;99619.53;;;19.68;75.66
17311;BME280;8773;43.300;0.394;2023-06-22T00:47:18;99619.66;;;19.80;75.63
17311;BME280;8773;43.300;0.394;2023-06-22T00:49:47;99624.59;;;19.90;75.51
17311;BME280;8773;43.300;0.394;2023-06-22T00:52:15;99633.16;;;19.87;75.77
17311;BME280;8773;43.300;0.394;2023-06-22T00:54:42;99634.19;;;19.86;75.73
17311;BME280;8773;43.300;0.394;2023-06-22T00:57:10;99645.47;;;19.83;75.75
17311;BME280;8773;43.300;0.394;2023-06-22T00:59:38;99646.91;;;19.85;75.78
17311;BME280;8773;43.300;0.394;2023-06-22T01:02:06;99652.22;;;19.74;76.61
17311;BME280;8773;43.300;0.394;2023-06-22T01:04:36;99658.28;;;19.69;76.92
17311;BME280;8773;43.300;0.394;2023-06-22T01:07:11;99653.91;;;19.68;77.34
17311;BME280;8773;43.300;0.394;2023-06-22T01:09:47;99645.44;;;19.89;77.21
17311;BME280;8773;43.300;0.394;2023-06-22T01:12:18;99647.84;;;20.04;76.93
17311;BME280;8773;43.300;0.394;2023-06-22T01:14:52;99647.28;;;19.95;77.40
17311;BME280;8773;43.300;0.394;2023-06-22T01:17:23;99656.38;;;20.08;76.98
17311;BME280;8773;43.300;0.394;2023-06-22T01:19:55;99664.97;;;19.98;77.28
17311;BME280;8773;43.300;0.394;2023-06-22T01:22:26;99666.19;;;20.02;77.46
17311;BME280;8773;43.300;0.394;2023-06-22T01:25:00;99670.00;;;19.94;77.56
17311;BME280;8773;43.300;0.394;2023-06-22T01:27:40;99667.50;;;19.93;77.67
17311;BME280;8773;43.300;0.394;2023-06-22T01:30:16;99684.56;;;20.00;77.43
17311;BME280;8773;43.300;0.394;2023-06-22T01:32:44;99689.94;;;20.13;76.99
17311;BME280;8773;43.300;0.394;2023-06-22T01:35:12;99689.50;;;20.16;76.56
17311;BME280;8773;43.300;0.394;2023-06-22T01:37:40;99696.63;;;20.04;76.77
17311;BME280;8773;43.300;0.394;2023-06-22T01:40:08;99707.47;;;20.04;76.66
17311;BME280;8773;43.300;0.394;2023-06-22T01:42:37;99707.91;;;20.01;76.75
17311;BME280;8773;43.300;0.394;2023-06-22T01:45:06;99724.34;;;20.06;76.57
17311;BME280;8773;43.300;0.394;2023-06-22T01:47:35;99707.03;;;20.07;76.65
17311;BME280;8773;43.300;0.394;2023-06-22T01:50:04;99720.38;;;20.15;76.29
17311;BME280;8773;43.300;0.394;2023-06-22T01:52:32;99706.59;;;20.10;76.09
17311;BME280;8773;43.300;0.394;2023-06-22T01:54:59;99709.56;;;20.02;76.97
17311;BME280;8773;43.300;0.394;2023-06-22T01:57:27;99719.22;;;19.91;76.81
17311;BME280;8773;43.300;0.394;2023-06-22T02:00:00;99726.53;;;19.84;77.61
17311;BME280;8773;43.300;0.394;2023-06-22T02:02:33;99735.19;;;19.68;77.86
17311;BME280;8773;43.300;0.394;2023-06-22T02:05:07;99742.59;;;19.86;77.75
17311;BME280;8773;43.300;0.394;2023-06-22T02:07:56;99752.00;;;19.77;77.84
17311;BME280;8773;43.300;0.394;2023-06-22T02:10:28;99741.00;;;19.72;77.56
17311;BME280;8773;43.300;0.394;2023-06-22T02:12:57;99744.28;;;19.80;77.95
17311;BME280;8773;43.300;0.394;2023-06-22T02:15:26;99745.09;;;19.81;77.72
17311;BME280;8773;43.300;0.394;2023-06-22T02:17:53;99743.56;;;19.98;77.14
17311;BME280;8773;43.300;0.394;2023-06-22T02:20:23;99741.34;;;19.82;77.20
17311;BME280;8773;43.300;0.394;2023-06-22T02:22:51;99735.94;;;19.82;77.32
17311;BME280;8773;43.300;0.394;2023-06-22T02:25:18;99745.09;;;19.87;77.11
17311;BME280;8773;43.300;0.394;2023-06-22T02:27:46;99736.84;;;20.07;77.20
17311;BME280;8773;43.300;0.394;2023-06-22T02:30:14;99742.88;;;20.09;76.41
17311;BME280;8773;43.300;0.394;2023-06-22T02:32:50;99744.81;;;20.02;76.70
17311;BME280;8773;43.300;0.394;2023-06-22T02:35:18;99749.78;;;20.05;76.66
17311;BME280;8773;43.300;0.394;2023-06-22T02:37:47;99746.03;;;20.13;76.71
17311;BME280;8773;43.300;0.394;2023-06-22T02:40:14;99746.66;;;20.15;76.32
17311;BME280;8773;43.300;0.394;2023-06-22T02:42:41;99752.06;;;20.08;76.42
17311;BME280;8773;43.300;0.394;2023-06-22T02:45:09;99754.56;;;20.10;76.74
17311;BME280;8773;43.300;0.394;2023-06-22T02:47:37;99749.56;;;20.13;76.55
17311;BME280;8773;43.300;0.394;2023-06-22T02:50:05;99759.38;;;20.14;76.26
17311;BME280;8773;43.300;0.394;2023-06-22T02:52:33;99758.56;;;20.00;77.16
17311;BME280;8773;43.300;0.394;2023-06-22T02:55:01;99756.66;;;20.14;76.77
17311;BME280;8773;43.300;0.394;2023-06-22T02:57:29;99756.88;;;20.06;76.96
17311;BME280;8773;43.300;0.394;2023-06-22T02:59:57;99751.03;;;20.09;76.80
17311;BME280;8773;43.300;0.394;2023-06-22T03:02:24;99757.50;;;20.08;76.60
17311;BME280;8773;43.300;0.394;2023-06-22T03:04:52;99761.69;;;20.04;76.70
17311;BME280;8773;43.300;0.394;2023-06-22T03:07:19;99758.75;;;20.12;76.55
17311;BME280;8773;43.300;0.394;2023-06-22T03:09:46;99762.91;;;20.08;76.64
17311;BME280;8773;43.300;0.394;2023-06-22T03:12:15;99762.09;;;20.08;76.67
17311;BME280;8773;43.300;0.394;2023-06-22T03:14:42;99762.69;;;20.16;76.51
17311;BME280;8773;43.300;0.394;2023-06-22T03:17:10;99768.00;;;20.29;76.00
17311;BME280;8773;43.300;0.394;2023-06-22T03:19:37;99769.69;;;20.30;76.16
17311;BME280;8773;43.300;0.394;2023-06-22T03:22:05;99772.56;;;20.36;75.76
17311;BME280;8773;43.300;0.394;2023-06-22T03:24:32;99773.97;;;20.45;75.43
17311;BME280;8773;43.300;0.394;2023-06-22T03:27:00;99781.47;;;20.49;75.14
17311;BME280;8773;43.300;0.394;2023-06-22T03:29:29;99777.91;;;20.49;75.38
17311;BME280;8773;43.300;0.394;2023-06-22T03:31:58;99782.28;;;20.50;75.51
17311;BME280;8773;43.300;0.394;2023-06-22T03:34:25;99778.97;;;20.48;75.49
17311;BME280;8773;43.300;0.394;2023-06-22T03:36:53;99775.81;;;20.51;75.36
17311;BME280;8773;43.300;0.394;2023-06-22T03:39:20;99781.31;;;20.38;75.81
17311;BME280;8773;43.300;0.394;2023-06-22T03:41:48;99786.91;;;20.43;75.87
17311;BME280;8773;43.300;0.394;2023-06-22T03:44:15;99788.31;;;20.52;75.48
17311;BME280;8773;43.300;0.394;2023-06-22T03:46:44;99774.75;;;20.52;75.24
17311;BME280;8773;43.300;0.394;2023-06-22T03:49:11;99781.00;;;20.52;75.10
17311;BME280;8773;43.300;0.394;2023-06-22T03:51:39;99776.66;;;20.51;75.22
17311;BME280;8773;43.300;0.394;2023-06-22T03:54:06;99774.16;;;20.50;75.27
17311;BME280;8773;43.300;0.394;2023-06-22T03:56:33;99779.84;;;20.42;75.48
17311;BME280;8773;43.300;0.394;2023-06-22T03:59:01;99777.81;;;20.30;75.50
17311;BME280;8773;43.300;0.394;2023-06-22T04:01:28;99780.69;;;20.36;75.76
17311;BME280;8773;43.300;0.394;2023-06-22T04:03:57;99780.88;;;20.41;75.75
17311;BME280;8773;43.300;0.394;2023-06-22T04:06:25;99786.91;;;20.43;75.59
17311;BME280;8773;43.300;0.394;2023-06-22T04:08:52;99787.09;;;20.48;75.31
17311;BME280;8773;43.300;0.394;2023-06-22T04:11:19;99784.38;;;20.48;74.79
17311;BME280;8773;43.300;0.394;2023-06-22T04:13:47;99790.25;;;20.45;75.06
17311;BME280;8773;43.300;0.394;2023-06-22T04:16:14;99793.13;;;20.50;74.84
17311;BME280;8773;43.300;0.394;2023-06-22T04:18:42;99789.84;;;20.41;75.19
17311;BME280;8773;43.300;0.394;2023-06-22T04:21:11;99789.63;;;20.43;74.84
17311;BME280;8773;43.300;0.394;2023-06-22T04:23:38;99796.09;;;20.42;75.31
17311;BME280;8773;43.300;0.394;2023-06-22T04:26:06;99794.94;;;20.24;75.29
17311;BME280;8773;43.300;0.394;2023-06-22T04:28:33;99801.59;;;20.28;75.58
17311;BME280;8773;43.300;0.394;2023-06-22T04:31:01;99803.25;;;20.29;75.64
17311;BME280;8773;43.300;0.394;2023-06-22T04:33:29;99799.69;;;20.36;75.58
17311;BME280;8773;43.300;0.394;2023-06-22T04:35:57;99801.34;;;20.37;75.04
17311;BME280;8773;43.300;0.394;2023-06-22T04:38:26;99809.06;;;20.40;75.17
17311;BME280;8773;43.300;0.394;2023-06-22T04:40:54;99819.97;;;20.26;75.42
17311;BME280;8773;43.300;0.394;2023-06-22T04:43:30;99817.63;;;20.37;75.17
17311;BME280;8773;43.300;0.394;2023-06-22T04:45:58;99812.19;;;20.37;75.28
17311;BME280;8773;43.300;0.394;2023-06-22T04:48:25;99827.41;;;20.38;74.84
17311;BME280;8773;43.300;0.394;2023-06-22T04:50:53;99821.56;;;20.41;75.08
17311;BME280;8773;43.300;0.394;2023-06-22T04:53:20;99835.34;;;20.39;74.78
17311;BME280;8773;43.300;0.394;2023-06-22T04:55:49;99830.03;;;20.19;74.90
17311;BME280;8773;43.300;0.394;2023-06-22T04:58:17;99835.84;;;20.23;75.19
17311;BME280;8773;43.300;0.394;2023-06-22T05:00:44;99835.19;;;20.27;75.04
17311;BME280;8773;43.300;0.394;2023-06-22T05:03:11;99832.50;;;20.21;74.80
17311;BME280;8773;43.300;0.394;2023-06-22T05:05:47;99838.97;;;20.20;74.85
17311;BME280;8773;43.300;0.394;2023-06-22T05:08:23;99838.34;;;20.24;74.56
17311;BME280;8773;43.300;0.394;2023-06-22T05:10:52;99839.03;;;20.13;74.83
17311;BME280;8773;43.300;0.394;2023-06-22T05:13:31;99838.38;;;20.18;74.62
17311;BME280;8773;43.300;0.394;2023-06-22T05:15:59;99847.84;;;19.89;75.45
17311;BME280;8773;43.300;0.394;2023-06-22T05:18:27;99844.25;;;20.01;75.22
17311;BME280;8773;43.300;0.394;2023-06-22T05:20:54;99853.22;;;20.15;74.80
17311;BME280;8773;43.300;0.394;2023-06-22T05:23:22;99848.41;;;20.11;75.03
17311;BME280;8773;43.300;0.394;2023-06-22T05:25:49;99857.59;;;20.03;75.01
17311;BME280;8773;43.300;0.394;2023-06-22T05:28:18;99853.84;;;20.04;75.18
17311;BME280;8773;43.300;0.394;2023-06-22T05:30:46;99860.50;;;20.15;75.18
17311;BME280;8773;43.300;0.394;2023-06-22T05:33:13;99855.91;;;20.09;75.04
17311;BME280;8773;43.300;0.394;2023-06-22T05:35:41;99857.41;;;19.98;75.41
17311;BME280;8773;43.300;0.394;2023-06-22T05:38:08;99861.38;;;19.95;74.98
17311;BME280;8773;43.300;0.394;2023-06-22T05:40:35;99873.44;;;20.06;75.15
17311;BME280;8773;43.300;0.394;2023-06-22T05:43:03;99871.38;;;19.95;75.24
17311;BME280;8773;43.300;0.394;2023-06-22T05:45:32;99876.81;;;19.95;75.55
17311;BME280;8773;43.300;0.394;2023-06-22T05:47:59;99888.25;;;20.04;75.21
17311;BME280;8773;43.300;0.394;2023-06-22T05:50:27;99877.88;;;19.87;75.75
17311;BME280;8773;43.300;0.394;2023-06-22T05:52:54;99885.16;;;19.93;75.69
17311;BME280;8773;43.300;0.394;2023-06-22T05:55:22;99888.88;;;20.06;75.25
17311;BME280;8773;43.300;0.394;2023-06-22T05:57:49;99890.97;;;20.04;74.92
17311;BME280;8773;43.300;0.394;2023-06-22T06:00:17;99895.13;;;20.13;74.72
17311;BME280;8773;43.300;0.394;2023-06-22T06:02:46;99886.72;;;20.21;74.89
17311;BME280;8773;43.300;0.394;2023-06-22T06:05:14;99895.88;;;20.26;74.59
17311;BME280;8773;43.300;0.394;2023-06-22T06:07:41;99898.41;;;20.21;74.64
17311;BME280;8773;43.300;0.394;2023-06-22T06:10:09;99902.09;;;20.40;74.16
17311;BME280;8773;43.300;0.394;2023-06-22T06:12:37;99896.50;;;20.28;74.39
17311;BME280;8773;43.300;0.394;2023-06-22T06:15:05;99905.03;;;20.39;74.33
17311;BME280;8773;43.300;0.394;2023-06-22T06:17:46;99909.97;;;20.55;74.04
17311;BME280;8773;43.300;0.394;2023-06-22T06:20:14;99911.28;;;20.39;74.19
17311;BME280;8773;43.300;0.394;2023-06-22T06:22:41;99908.78;;;20.38;74.01
17311;BME280;8773;43.300;0.394;2023-06-22T06:25:09;99909.78;;;20.50;73.89
17311;BME280;8773;43.300;0.394;2023-06-22T06:27:37;99915.34;;;20.61;73.45
17311;BME280;8773;43.300;0.394;2023-06-22T06:30:05;99919.38;;;20.84;72.97
17311;BME280;8773;43.300;0.394;2023-06-22T06:32:33;99928.34;;;20.84;72.88
17311;BME280;8773;43.300;0.394;2023-06-22T06:35:02;99928.34;;;20.84;72.65
17311;BME280;8773;43.300;0.394;2023-06-22T06:37:29;99929.66;;;20.75;72.91
17311;BME280;8773;43.300;0.394;2023-06-22T06:39:57;99942.03;;;20.64;72.92
17311;BME280;8773;43.300;0.394;2023-06-22T06:42:24;99939.91;;;20.73;73.01
17311;BME280;8773;43.300;0.394;2023-06-22T06:44:52;99946.31;;;20.85;72.59
17311;BME280;8773;43.300;0.394;2023-06-22T06:47:19;99943.19;;;20.82;73.00
17311;BME280;8773;43.300;0.394;2023-06-22T06:49:47;99944.75;;;20.64;72.87
17311;BME280;8773;43.300;0.394;2023-06-22T06:52:15;99952.84;;;20.71;72.99
17311;BME280;8773;43.300;0.394;2023-06-22T06:54:43;99951.78;;;20.79;72.70
17311;BME280;8773;43.300;0.394;2023-06-22T06:57:10;99958.28;;;20.71;73.00
17311;BME280;8773;43.300;0.394;2023-06-22T06:59:38;99960.16;;;20.71;73.43
17311;BME280;8773;43.300;0.394;2023-06-22T07:02:05;99959.88;;;20.85;72.61
17311;BME280;8773;43.300;0.394;2023-06-22T07:04:33;99955.28;;;20.92;72.52
17311;BME280;8773;43.300;0.394;2023-06-22T07:07:02;99963.56;;;21.04;71.77
17311;BME280;8773;43.300;0.394;2023-06-22T07:09:31;99965.78;;;21.14;71.25
17311;BME280;8773;43.300;0.394;2023-06-22T07:11:58;99964.03;;;21.26;71.18
17311;BME280;8773;43.300;0.394;2023-06-22T07:14:26;99964.81;;;21.33;70.72
17311;BME280;8773;43.300;0.394;2023-06-22T07:16:53;99983.00;;;21.32;71.01
17311;BME280;8773;43.300;0.394;2023-06-22T07:19:24;99985.75;;;21.26;70.91
17311;BME280;8773;43.300;0.394;2023-06-22T07:21:52;99976.66;;;21.45;70.42
17311;BME280;8773;43.300;0.394;2023-06-22T07:24:20;99982.72;;;21.72;69.87
17311;BME280;8773;43.300;0.394;2023-06-22T07:26:49;99984.94;;;22.00;68.49
17311;BME280;8773;43.300;0.394;2023-06-22T07:29:17;99978.28;;;21.96;68.61
17311;BME280;8773;43.300;0.394;2023-06-22T07:31:45;99991.00;;;22.20;68.02
17311;BME280;8773;43.300;0.394;2023-06-22T07:34:13;99994.97;;;21.99;67.96
17311;BME280;8773;43.300;0.394;2023-06-22T07:36:40;99992.53;;;22.16;68.11
17311;BME280;8773;43.300;0.394;2023-06-22T07:39:08;99997.66;;;22.24;67.90
17311;BME280;8773;43.300;0.394;2023-06-22T07:41:35;99999.56;;;22.24;67.92
17311;BME280;8773;43.300;0.394;2023-06-22T07:44:04;99992.69;;;22.40;67.54
17311;BME280;8773;43.300;0.394;2023-06-22T07:46:32;99995.41;;;22.40;67.35
17311;BME280;8773;43.300;0.394;2023-06-22T07:48:59;100000.94;;;22.33;67.40
17311;BME280;8773;43.300;0.394;2023-06-22T07:51:27;100001.75;;;22.34;66.98
17311;BME280;8773;43.300;0.394;2023-06-22T07:53:54;100008.22;;;22.14;67.15
17311;BME280;8773;43.300;0.394;2023-06-22T07:56:21;100020.00;;;22.08;67.95
17311;BME280;8773;43.300;0.394;2023-06-22T07:58:49;100017.50;;;21.88;68.29
17311;BME280;8773;43.300;0.394;2023-06-22T08:01:18;100024.16;;;22.11;68.23
17311;BME280;8773;43.300;0.394;2023-06-22T08:03:45;100029.88;;;22.03;67.58
17311;BME280;8773;43.300;0.394;2023-06-22T08:06:13;100028.88;;;21.97;68.28
17311;BME280;8773;43.300;0.394;2023-06-22T08:08:40;100027.53;;;21.88;68.54
17311;BME280;8773;43.300;0.394;2023-06-22T08:11:08;100023.19;;;21.80;68.24
17311;BME280;8773;43.300;0.394;2023-06-22T08:13:35;100029.81;;;21.91;68.31
17311;BME280;8773;43.300;0.394;2023-06-22T08:16:03;100026.53;;;21.82;68.20
17311;BME280;8773;43.300;0.394;2023-06-22T08:18:32;100028.72;;;22.17;67.66
17311;BME280;8773;43.300;0.394;2023-06-22T08:21:00;100032.44;;;22.22;67.34
17311;BME280;8773;43.300;0.394;2023-06-22T08:23:29;100033.50;;;22.40;67.00
17311;BME280;8773;43.300;0.394;2023-06-22T08:25:57;100033.69;;;22.63;65.98
17311;BME280;8773;43.300;0.394;2023-06-22T08:28:24;100037.00;;;22.47;65.89
17311;BME280;8773;43.300;0.394;2023-06-22T08:30:52;100054.22;;;22.95;65.92
17311;BME280;8773;43.300;0.394;2023-06-22T08:33:19;100048.69;;;23.02;64.87
17311;BME280;8773;43.300;0.394;2023-06-22T08:35:56;100048.75;;;22.95;64.88
17311;BME280;8773;43.300;0.394;2023-06-22T08:38:23;100058.16;;;22.81;65.37
17311;BME280;8773;43.300;0.394;2023-06-22T08:40:51;100058.47;;;22.73;65.78
17311;BME280;8773;43.300;0.394;2023-06-22T08:43:18;100055.22;;;22.46;66.86
17311;BME280;8773;43.300;0.394;2023-06-22T08:45:46;100066.84;;;22.10;67.17
17311;BME280;8773;43.300;0.394;2023-06-22T08:48:14;100064.69;;;22.19;67.77
17311;BME280;8773;43.300;0.394;2023-06-22T08:50:41;100059.31;;;22.55;67.09
17311;BME280;8773;43.300;0.394;2023-06-22T08:53:10;100070.56;;;22.59;66.40
17311;BME280;8773;43.300;0.394;2023-06-22T08:55:37;100070.28;;;22.67;65.40
17311;BME280;8773;43.300;0.394;2023-06-22T08:58:05;100072.97;;;22.85;65.51
17311;BME280;8773;43.300;0.394;2023-06-22T09:00:32;100082.50;;;22.94;65.17
17311;BME280;8773;43.300;0.394;2023-06-22T09:03:00;100083.03;;;23.03;65.11
17311;BME280;8773;43.300;0.394;2023-06-22T09:05:27;100079.78;;;22.94;64.74
17311;BME280;8773;43.300;0.394;2023-06-22T09:07:56;100085.59;;;22.98;65.02
17311;BME280;8773;43.300;0.394;2023-06-22T09:10:25;100095.75;;;22.91;65.32
17311;BME280;8773;43.300;0.394;2023-06-22T09:12:52;100095.22;;;23.01;65.18
17311;BME280;8773;43.300;0.394;2023-06-22T09:15:20;100093.94;;;22.85;65.20
17311;BME280;8773;43.300;0.394;2023-06-22T09:17:48;100106.06;;;23.07;64.71
17311;BME280;8773;43.300;0.394;2023-06-22T09:20:15;100109.88;;;23.00;64.83
17311;BME280;8773;43.300;0.394;2023-06-22T09:22:43;100105.50;;;22.80;64.62
17311;BME280;8773;43.300;0.394;2023-06-22T09:25:10;100110.41;;;22.53;66.24
17311;BME280;8773;43.300;0.394;2023-06-22T09:27:39;100103.88;;;22.79;65.44
17311;BME280;8773;43.300;0.394;2023-06-22T09:30:08;100114.66;;;22.86;64.87
17311;BME280;8773;43.300;0.394;2023-06-22T09:32:35;100113.47;;;23.18;64.70
17311;BME280;8773;43.300;0.394;2023-06-22T09:35:04;100120.88;;;23.71;63.10
17311;BME280;8773;43.300;0.394;2023-06-22T09:37:32;100116.25;;;24.02;61.85
17311;BME280;8773;43.300;0.394;2023-06-22T09:39:59;100107.91;;;24.50;60.94
17311;BME280;8773;43.300;0.394;2023-06-22T09:42:27;100111.38;;;25.09;59.57
17311;BME280;8773;43.300;0.394;2023-06-22T09:44:55;100115.38;;;25.18;58.14
17311;BME280;8773;43.300;0.394;2023-06-22T09:47:23;100116.75;;;24.80;58.89
17311;BME280;8773;43.300;0.394;2023-06-22T09:49:50;100117.72;;;24.39;59.20
17311;BME280;8773;43.300;0.394;2023-06-22T09:52:18;100119.59;;;24.15;60.55
17311;BME280;8773;43.300;0.394;2023-06-22T09:54:46;100132.91;;;23.52;61.73
17311;BME280;8773;43.300;0.394;2023-06-22T09:57:13;100143.47;;;23.30;62.67
17311;BME280;8773;43.300;0.394;2023-06-22T09:59:41;100137.66;;;22.90;63.42
17311;BME280;8773;43.300;0.394;2023-06-22T10:02:10;100140.22;;;22.85;63.79
17311;BME280;8773;43.300;0.394;2023-06-22T10:04:37;100138.78;;;23.01;64.37
17311;BME280;8773;43.300;0.394;2023-06-22T10:07:05;100136.66;;;23.39;63.13
17311;BME280;8773;43.300;0.394;2023-06-22T10:09:32;100144.34;;;23.60;62.85
17311;BME280;8773;43.300;0.394;2023-06-22T10:12:00;100139.47;;;23.92;61.66
17311;BME280;8773;43.300;0.394;2023-06-22T10:14:27;100131.00;;;24.59;60.05
17311;BME280;8773;43.300;0.394;2023-06-22T10:16:55;100140.50;;;24.91;59.53
17311;BME280;8773;43.300;0.394;2023-06-22T10:19:27;100144.31;;;24.90;59.33
17311;BME280;8773;43.300;0.394;2023-06-22T10:21:54;100138.13;;;24.83;58.57
17311;BME280;8773;43.300;0.394;2023-06-22T10:24:22;100146.91;;;24.85;58.23
17311;BME280;8773;43.300;0.394;2023-06-22T10:26:49;100152.63;;;24.60;59.09
17311;BME280;8773;43.300;0.394;2023-06-22T10:29:17;100149.78;;;24.90;59.51
17311;BME280;8773;43.300;0.394;2023-06-22T10:31:44;100155.44;;;25.01;58.21
17311;BME280;8773;43.300;0.394;2023-06-22T10:34:12;100150.13;;;24.82;57.54
17311;BME280;8773;43.300;0.394;2023-06-22T10:36:40;100155.72;;;24.76;58.62
17311;BME280;8773;43.300;0.394;2023-06-22T10:39:08;100175.13;;;24.33;59.13
17311;BME280;8773;43.300;0.394;2023-06-22T10:41:35;100164.53;;;24.13;59.32
17311;BME280;8773;43.300;0.394;2023-06-22T10:44:03;100181.00;;;24.48;59.41
17311;BME280;8773;43.300;0.394;2023-06-22T10:46:30;100179.59;;;24.45;58.88
17311;BME280;8773;43.300;0.394;2023-06-22T10:48:58;100184.38;;;24.08;59.00
17311;BME280;8773;43.300;0.394;2023-06-22T10:51:25;100198.97;;;23.84;59.83
17311;BME280;8773;43.300;0.394;2023-06-22T10:53:54;100182.53;;;23.42;61.07
17311;BME280;8773;43.300;0.394;2023-06-22T10:56:22;100202.84;;;23.10;61.61
17311;BME280;8773;43.300;0.394;2023-06-22T10:58:49;100198.56;;;23.32;60.87
17311;BME280;8773;43.300;0.394;2023-06-22T11:01:17;100194.91;;;23.75;59.31
17311;BME280;8773;43.300;0.394;2023-06-22T11:04:02;100202.03;;;24.47;57.23
17311;BME280;8773;43.300;0.394;2023-06-22T11:06:30;100192.88;;;24.77;56.45
17311;BME280;8773;43.300;0.394;2023-06-22T11:08:59;100192.47;;;25.32;55.34
17311;BME280;8773;43.300;0.394;2023-06-22T11:11:29;100193.47;;;25.14;54.35
17311;BME280;8773;43.300;0.394;2023-06-22T11:13:57;100196.91;;;25.21;53.97
17311;BME280;8773;43.300;0.394;2023-06-22T11:16:25;100192.75;;;25.07;55.04
17311;BME280;8773;43.300;0.394;2023-06-22T11:18:53;100203.38;;;25.43;54.34
17311;BME280;8773;43.300;0.394;2023-06-22T11:21:20;100208.84;;;25.83;53.60
17311;BME280;8773;43.300;0.394;2023-06-22T11:23:47;100207.22;;;25.99;52.93
17311;BME280;8773;43.300;0.394;2023-06-22T11:26:16;100192.19;;;25.85;53.19
17311;BME280;8773;43.300;0.394;2023-06-22T11:28:44;100200.44;;;26.02;53.26
17311;BME280;8773;43.300;0.394;2023-06-22T11:31:11;100201.28;;;25.62;53.09
17311;BME280;8773;43.300;0.394;2023-06-22T11:33:52;100193.28;;;26.01;52.23
17311;BME280;8773;43.300;0.394;2023-06-22T11:36:20;100196.56;;;26.14;52.43
17311;BME280;8773;43.300;0.394;2023-06-22T11:38:48;100187.63;;;26.19;52.67
17311;BME280;8773;43.300;0.394;2023-06-22T11:41:16;100186.56;;;26.37;50.94
17311;BME280;8773;43.300;0.394;2023-06-22T11:43:44;100177.25;;;26.21;52.81
17311;BME280;8773;43.300;0.394;2023-06-22T11:46:11;100183.56;;;26.21;52.85
17311;BME280;8773;43.300;0.394;2023-06-22T11:48:39;100192.47;;;26.00;53.06
17311;BME280;8773;43.300;0.394;2023-06-22T11:51:06;100197.59;;;25.80;53.54
17311;BME280;8773;43.300;0.394;2023-06-22T11:53:34;100202.94;;;25.75;54.60
17311;BME280;8773;43.300;0.394;2023-06-22T11:56:01;100199.91;;;25.88;54.30
17311;BME280;8773;43.300;0.394;2023-06-22T11:58:30;100202.03;;;26.14;54.51
17311;BME280;8773;43.300;0.394;2023-06-22T12:00:58;100215.94;;;26.58;53.39
17311;BME280;8773;43.300;0.394;2023-06-22T12:03:25;100200.31;;;26.92;53.01
17311;BME280;8773;43.300;0.394;2023-06-22T12:05:53;100207.28;;;27.00;51.53
17311;BME280;8773;43.300;0.394;2023-06-22T12:08:20;100212.94;;;27.15;50.30
17311;BME280;8773;43.300;0.394;2023-06-22T12:10:49;100222.28;;;26.30;51.19
17311;BME280;8773;43.300;0.394;2023-06-22T12:13:17;100221.00;;;26.04;52.88
17311;BME280;8773;43.300;0.394;2023-06-22T12:15:46;100219.34;;;26.03;53.89
17311;BME280;8773;43.300;0.394;2023-06-22T12:18:13;100218.41;;;25.98;54.25
17311;BME280;8773;43.300;0.394;2023-06-22T12:20:40;100209.25;;;26.20;53.83
17311;BME280;8773;43.300;0.394;2023-06-22T12:23:08;100213.72;;;26.10;53.11
17311;BME280;8773;43.300;0.394;2023-06-22T12:25:35;100211.94;;;26.32;53.57
17311;BME280;8773;43.300;0.394;2023-06-22T12:28:03;100216.97;;;25.78;53.31
17311;BME280;8773;43.300;0.394;2023-06-22T12:30:32;100230.41;;;25.16;55.03
17311;BME280;8773;43.300;0.394;2023-06-22T12:33:01;100257.94;;;24.26;62.39
17311;BME280;8773;43.300;0.394;2023-06-22T12:35:29;100258.22;;;23.58;65.35
17311;BME280;8773;43.300;0.394;2023-06-22T12:38:04;100252.31;;;23.43;64.23
17311;BME280;8773;43.300;0.394;2023-06-22T12:40:32;100250.59;;;23.49;64.78
17311;BME280;8773;43.300;0.394;2023-06-22T12:42:59;100260.50;;;23.43;65.03
17311;BME280;8773;43.300;0.394;2023-06-22T12:45:26;100258.84;;;23.60;63.52
17311;BME280;8773;43.300;0.394;2023-06-22T12:47:54;100261.22;;;24.05;63.86
17311;BME280;8773;43.300;0.394;2023-06-22T12:50:21;100255.94;;;24.75;63.41
17311;BME280;8773;43.300;0.394;2023-06-22T12:52:49;100255.72;;;24.88;60.56
17311;BME280;8773;43.300;0.394;2023-06-22T12:55:18;100259.16;;;24.96;60.77
17311;BME280;8773;43.300;0.394;2023-06-22T12:57:45;100255.59;;;25.07;58.83
17311;BME280;8773;43.300;0.394;2023-06-22T13:00:13;100260.47;;;25.28;60.15
17311;BME280;8773;43.300;0.394;2023-06-22T13:02:41;100264.88;;;25.17;58.39
17311;BME280;8773;43.300;0.394;2023-06-22T13:05:09;100251.44;;;25.39;59.12
17311;BME280;8773;43.300;0.394;2023-06-22T13:07:36;100247.91;;;25.79;57.18
17311;BME280;8773;43.300;0.394;2023-06-22T13:10:04;100254.56;;;25.71;56.78
17311;BME280;8773;43.300;0.394;2023-06-22T13:12:33;100254.34;;;26.01;55.85